sensor_id;sensor_type;location;lat;lon;timestamp;temperature;humidity
21033;DHT22;10675;47.976;7.824;2023-11-18T00:02:23;5.90;99.90
21033;DHT22;10675;47.976;7.824;2023-11-18T00:04:50;5.80;99.90
21033;DHT22;10675;47.976;7.824;2023-11-18T00:07:16;5.80;99.90
21033;DHT22;10675;47.976;7.824;2023-11-18T00:09:42;5.70;99.90
21033;DHT22;10675;47.976;7.824;2023-11-18T00:12:11;5.60;99.90
21033;DHT22;10675;47.976;7.824;2023-11-18T00:14:37;5.70;99.90
21033;DHT22;10675;47.976;7.824;2023-11-18T00:17:03;5.70;99.90
21033;DHT22;10675;47.976;7.824;2023-11-18T00:19:29;5.80;99.90
21033;DHT22;10675;47.976;7.824;2023-11-18T00:21:55;5.80;99.90
21033;DHT22;10675;47.976;7.824;2023-11-18T00:24:21;5.60;99.90
21033;DHT22;10675;47.976;7.824;2023-11-18T00:26:46;5.60;99.90
21033;DHT22;10675;47.976;7.824;2023-11-18T00:29:12;5.70;99.90
21033;DHT22;10675;47.976;7.824;2023-11-18T00:31:38;5.70;99.90
21033;DHT22;10675;47.976;7.824;2023-11-18T00:34:03;5.60;99.90
21033;DHT22;10675;47.976;7.824;2023-11-18T00:36:29;5.50;99.90
21033;DHT22;10675;47.976;7.824;2023-11-18T00:38:55;5.40;99.90
21033;DHT22;10675;47.976;7.824;2023-11-18T00:41:20;5.40;99.90
21033;DHT22;10675;47.976;7.824;2023-11-18T00:43:46;5.40;99.90
21033;DHT22;10675;47.976;7.824;2023-11-18T00:46:12;5.30;99.90
21033;DHT22;10675;47.976;7.824;2023-11-18T00:48:38;5.30;99.90
21033;DHT22;10675;47.976;7.824;2023-11-18T00:51:05;5.20;99.90
21033;DHT22;10675;47.976;7.824;2023-11-18T00:53:31;5.20;99.90
21033;DHT22;10675;47.976;7.824;2023-11-18T00:55:56;5.10;99.90
21033;DHT22;10675;47.976;7.824;2023-11-18T00:58:22;5.10;99.90
21033;DHT22;10675;47.976;7.824;2023-11-18T01:00:47;5.20;99.90
21033;DHT22;10675;47.976;7.824;2023-11-18T01:03:13;5.10;99.90
21033;DHT22;10675;47.976;7.824;2023-11-18T01:05:38;5.10;99.90
21033;DHT22;10675;47.976;7.824;2023-11-18T01:08:04;5.10;99.90
21033;DHT22;10675;47.976;7.824;2023-11-18T01:10:30;5.10;99.90
21033;DHT22;10675;47.976;7.824;2023-11-18T01:12:56;5.20;99.90
21033;DHT22;10675;47.976;7.824;2023-11-18T01:15:23;5.10;99.90
21033;DHT22;10675;47.976;7.824;2023-11-18T01:17:49;5.20;99.90
21033;DHT22;10675;47.976;7.824;2023-11-18T01:20:14;5.10;99.90
21033;DHT22;10675;47.976;7.824;2023-11-18T01:22:46;5.10;99.90
21033;DHT22;10675;47.976;7.824;2023-11-18T01:25:12;5.10;99.90
21033;DHT22;10675;47.976;7.824;2023-11-18T01:27:38;5.10;99.90
21033;DHT22;10675;47.976;7.824;2023-11-18T01:30:03;5.00;99.90
21033;DHT22;10675;47.976;7.824;2023-11-18T01:32:30;5.10;99.90
21033;DHT22;10675;47.976;7.824;2023-11-18T01:34:56;5.10;99.90
21033;DHT22;10675;47.976;7.824;2023-11-18T01:37:22;5.10;99.90
21033;DHT22;10675;47.976;7.824;2023-11-18T01:39:48;5.10;99.90
21033;DHT22;10675;47.976;7.824;2023-11-18T01:42:14;5.10;99.90
21033;DHT22;10675;47.976;7.824;2023-11-18T01:44:40;5.10;99.90
21033;DHT22;10675;47.976;7.824;2023-11-18T01:47:07;5.10;99.90
21033;DHT22;10675;47.976;7.824;2023-11-18T01:49:37;5.10;99.90
21033;DHT22;10675;47.976;7.824;2023-11-18T01:52:06;5.10;99.90
21033;DHT22;10675;47.976;7.824;2023-11-18T01:54:34;5.10;99.90
21033;DHT22;10675;47.976;7.824;2023-11-18T01:57:00;5.00;99.90
21033;DHT22;10675;47.976;7.824;2023-11-18T01:59:32;4.90;99.90
21033;DHT22;10675;47.976;7.824;2023-11-18T02:01:59;5.00;99.90
21033;DHT22;10675;47.976;7.824;2023-11-18T02:04:25;4.90;99.90
21033;DHT22;10675;47.976;7.824;2023-11-18T02:06:52;4.90;99.90
21033;DHT22;10675;47.976;7.824;2023-11-18T02:09:21;4.90;99.90
21033;DHT22;10675;47.976;7.824;2023-11-18T02:14:43;4.80;99.90
21033;DHT22;10675;47.976;7.824;2023-11-18T02:17:14;4.90;99.90
21033;DHT22;10675;47.976;7.824;2023-11-18T02:19:40;4.90;99.90
21033;DHT22;10675;47.976;7.824;2023-11-18T02:22:07;4.90;99.90
21033;DHT22;10675;47.976;7.824;2023-11-18T02:24:33;4.80;99.90
21033;DHT22;10675;47.976;7.824;2023-11-18T02:27:04;4.90;99.90
21033;DHT22;10675;47.976;7.824;2023-11-18T02:29:34;4.80;99.90
21033;DHT22;10675;47.976;7.824;2023-11-18T02:32:20;4.80;99.90
21033;DHT22;10675;47.976;7.824;2023-11-18T02:34:58;4.80;99.90
21033;DHT22;10675;47.976;7.824;2023-11-18T02:37:27;4.80;99.90
21033;DHT22;10675;47.976;7.824;2023-11-18T02:40:03;4.80;99.90
21033;DHT22;10675;47.976;7.824;2023-11-18T02:42:35;4.80;99.90
21033;DHT22;10675;47.976;7.824;2023-11-18T02:45:01;4.70;99.90
21033;DHT22;10675;47.976;7.824;2023-11-18T02:47:27;4.70;99.90
21033;DHT22;10675;47.976;7.824;2023-11-18T02:49:56;4.70;99.90
21033;DHT22;10675;47.976;7.824;2023-11-18T02:52:22;4.70;99.90
21033;DHT22;10675;47.976;7.824;2023-11-18T02:54:48;4.70;99.90
21033;DHT22;10675;47.976;7.824;2023-11-18T02:57:13;4.60;99.90
21033;DHT22;10675;47.976;7.824;2023-11-18T02:59:39;4.60;99.90
21033;DHT22;10675;47.976;7.824;2023-11-18T03:02:04;4.50;99.90
21033;DHT22;10675;47.976;7.824;2023-11-18T03:04:31;4.60;99.90
21033;DHT22;10675;47.976;7.824;2023-11-18T03:06:57;4.60;99.90
21033;DHT22;10675;47.976;7.824;2023-11-18T03:09:22;4.60;99.90
21033;DHT22;10675;47.976;7.824;2023-11-18T03:11:53;4.50;99.90
21033;DHT22;10675;47.976;7.824;2023-11-18T03:14:20;4.40;99.90
21033;DHT22;10675;47.976;7.824;2023-11-18T03:16:45;4.40;99.90
21033;DHT22;10675;47.976;7.824;2023-11-18T03:19:11;4.40;99.90
21033;DHT22;10675;47.976;7.824;2023-11-18T03:21:36;4.30;99.90
21033;DHT22;10675;47.976;7.824;2023-11-18T03:24:02;4.40;99.90
21033;DHT22;10675;47.976;7.824;2023-11-18T03:26:28;4.40;99.90
21033;DHT22;10675;47.976;7.824;2023-11-18T03:28:53;4.50;99.90
21033;DHT22;10675;47.976;7.824;2023-11-18T03:31:19;4.40;99.90
21033;DHT22;10675;47.976;7.824;2023-11-18T03:33:45;4.40;99.90
21033;DHT22;10675;47.976;7.824;2023-11-18T03:36:10;4.50;99.90
21033;DHT22;10675;47.976;7.824;2023-11-18T03:38:37;4.40;99.90
21033;DHT22;10675;47.976;7.824;2023-11-18T03:41:03;4.40;99.90
21033;DHT22;10675;47.976;7.824;2023-11-18T03:43:28;4.50;99.90
21033;DHT22;10675;47.976;7.824;2023-11-18T03:45:54;4.50;99.90
21033;DHT22;10675;47.976;7.824;2023-11-18T03:48:22;4.60;99.90
21033;DHT22;10675;47.976;7.824;2023-11-18T03:50:48;4.50;99.90
21033;DHT22;10675;47.976;7.824;2023-11-18T03:53:13;4.50;99.90
21033;DHT22;10675;47.976;7.824;2023-11-18T03:55:39;4.50;99.90
21033;DHT22;10675;47.976;7.824;2023-11-18T03:58:04;4.50;99.90
21033;DHT22;10675;47.976;7.824;2023-11-18T04:00:30;4.50;99.90
21033;DHT22;10675;47.976;7.824;2023-11-18T04:02:56;4.40;99.90
21033;DHT22;10675;47.976;7.824;2023-11-18T04:05:22;4.40;99.90
21033;DHT22;10675;47.976;7.824;2023-11-18T04:07:47;4.30;99.90
21033;DHT22;10675;47.976;7.824;2023-11-18T04:10:13;4.40;99.90
21033;DHT22;10675;47.976;7.824;2023-11-18T04:12:39;4.50;99.90
21033;DHT22;10675;47.976;7.824;2023-11-18T04:15:05;4.50;99.90
21033;DHT22;10675;47.976;7.824;2023-11-18T04:17:31;4.50;99.90
21033;DHT22;10675;47.976;7.824;2023-11-18T04:19:57;4.40;99.90
21033;DHT22;10675;47.976;7.824;2023-11-18T04:22:23;4.40;99.90
21033;DHT22;10675;47.976;7.824;2023-11-18T04:24:49;4.40;99.90
21033;DHT22;10675;47.976;7.824;2023-11-18T04:27:15;4.30;99.90
21033;DHT22;10675;47.976;7.824;2023-11-18T04:29:41;4.30;99.90
21033;DHT22;10675;47.976;7.824;2023-11-18T04:32:07;4.40;99.90
21033;DHT22;10675;47.976;7.824;2023-11-18T04:34:36;4.40;99.90
21033;DHT22;10675;47.976;7.824;2023-11-18T04:37:03;4.30;99.90
21033;DHT22;10675;47.976;7.824;2023-11-18T04:39:31;4.40;99.90
21033;DHT22;10675;47.976;7.824;2023-11-18T04:41:57;4.30;99.90
21033;DHT22;10675;47.976;7.824;2023-11-18T04:44:23;4.40;99.90
21033;DHT22;10675;47.976;7.824;2023-11-18T04:46:48;4.30;99.90
21033;DHT22;10675;47.976;7.824;2023-11-18T04:49:14;4.30;99.90
21033;DHT22;10675;47.976;7.824;2023-11-18T04:51:40;4.40;99.90
21033;DHT22;10675;47.976;7.824;2023-11-18T04:54:05;4.40;99.90
21033;DHT22;10675;47.976;7.824;2023-11-18T04:56:34;4.50;99.90
21033;DHT22;10675;47.976;7.824;2023-11-18T04:59:01;4.40;99.90
21033;DHT22;10675;47.976;7.824;2023-11-18T05:01:27;4.50;99.90
21033;DHT22;10675;47.976;7.824;2023-11-18T05:03:52;4.50;99.90
21033;DHT22;10675;47.976;7.824;2023-11-18T05:06:18;4.40;99.90
21033;DHT22;10675;47.976;7.824;2023-11-18T05:08:45;4.50;99.90
21033;DHT22;10675;47.976;7.824;2023-11-18T05:11:11;4.50;99.90
21033;DHT22;10675;47.976;7.824;2023-11-18T05:13:38;4.40;99.90
21033;DHT22;10675;47.976;7.824;2023-11-18T05:16:05;4.50;99.90
21033;DHT22;10675;47.976;7.824;2023-11-18T05:18:31;4.40;99.90
21033;DHT22;10675;47.976;7.824;2023-11-18T05:21:01;4.50;99.90
21033;DHT22;10675;47.976;7.824;2023-11-18T05:23:28;4.50;99.90
21033;DHT22;10675;47.976;7.824;2023-11-18T05:25:54;4.40;99.90
21033;DHT22;10675;47.976;7.824;2023-11-18T05:28:21;4.50;99.90
21033;DHT22;10675;47.976;7.824;2023-11-18T05:30:47;4.40;99.90
21033;DHT22;10675;47.976;7.824;2023-11-18T05:33:13;4.40;99.90
21033;DHT22;10675;47.976;7.824;2023-11-18T05:35:43;4.50;99.90
21033;DHT22;10675;47.976;7.824;2023-11-18T05:38:18;4.40;99.90
21033;DHT22;10675;47.976;7.824;2023-11-18T05:40:47;4.50;99.90
21033;DHT22;10675;47.976;7.824;2023-11-18T05:43:25;4.50;99.90
21033;DHT22;10675;47.976;7.824;2023-11-18T05:46:11;4.50;99.90
21033;DHT22;10675;47.976;7.824;2023-11-18T05:48:47;4.40;99.90
21033;DHT22;10675;47.976;7.824;2023-11-18T05:51:13;4.50;99.90
21033;DHT22;10675;47.976;7.824;2023-11-18T05:53:43;4.50;99.90
21033;DHT22;10675;47.976;7.824;2023-11-18T05:56:15;4.60;99.90
21033;DHT22;10675;47.976;7.824;2023-11-18T05:58:42;4.50;99.90
21033;DHT22;10675;47.976;7.824;2023-11-18T06:01:11;4.50;99.90
21033;DHT22;10675;47.976;7.824;2023-11-18T06:03:38;4.60;99.90
21033;DHT22;10675;47.976;7.824;2023-11-18T06:06:07;4.50;99.90
21033;DHT22;10675;47.976;7.824;2023-11-18T06:08:34;4.50;99.90
21033;DHT22;10675;47.976;7.824;2023-11-18T06:11:00;4.50;99.90
21033;DHT22;10675;47.976;7.824;2023-11-18T06:13:30;4.50;99.90
21033;DHT22;10675;47.976;7.824;2023-11-18T06:15:56;4.60;99.90
21033;DHT22;10675;47.976;7.824;2023-11-18T06:18:24;4.60;99.90
21033;DHT22;10675;47.976;7.824;2023-11-18T06:20:49;4.60;99.90
21033;DHT22;10675;47.976;7.824;2023-11-18T06:23:15;4.50;99.90
21033;DHT22;10675;47.976;7.824;2023-11-18T06:25:43;4.50;99.90
21033;DHT22;10675;47.976;7.824;2023-11-18T06:28:11;4.50;99.90
21033;DHT22;10675;47.976;7.824;2023-11-18T06:30:36;4.50;99.90
21033;DHT22;10675;47.976;7.824;2023-11-18T06:33:02;4.40;99.90
21033;DHT22;10675;47.976;7.824;2023-11-18T06:35:28;4.40;99.90
21033;DHT22;10675;47.976;7.824;2023-11-18T06:37:55;4.50;99.90
21033;DHT22;10675;47.976;7.824;2023-11-18T06:40:20;4.50;99.90
21033;DHT22;10675;47.976;7.824;2023-11-18T06:42:47;4.60;99.90
21033;DHT22;10675;47.976;7.824;2023-11-18T06:45:13;4.60;99.90
21033;DHT22;10675;47.976;7.824;2023-11-18T06:47:40;4.60;99.90
21033;DHT22;10675;47.976;7.824;2023-11-18T06:50:09;4.70;99.90
21033;DHT22;10675;47.976;7.824;2023-11-18T06:52:38;4.80;99.90
21033;DHT22;10675;47.976;7.824;2023-11-18T06:55:04;4.80;99.90
21033;DHT22;10675;47.976;7.824;2023-11-18T06:57:30;5.00;99.90
21033;DHT22;10675;47.976;7.824;2023-11-18T06:59:56;5.20;99.90
21033;DHT22;10675;47.976;7.824;2023-11-18T07:02:21;5.20;99.90
21033;DHT22;10675;47.976;7.824;2023-11-18T07:04:47;5.20;99.90
21033;DHT22;10675;47.976;7.824;2023-11-18T07:07:12;5.10;99.90
21033;DHT22;10675;47.976;7.824;2023-11-18T07:09:39;5.20;99.90
21033;DHT22;10675;47.976;7.824;2023-11-18T07:12:05;5.20;99.90
21033;DHT22;10675;47.976;7.824;2023-11-18T07:14:30;5.40;99.90
21033;DHT22;10675;47.976;7.824;2023-11-18T07:16:56;5.40;99.90
21033;DHT22;10675;47.976;7.824;2023-11-18T07:19:21;5.40;99.90
21033;DHT22;10675;47.976;7.824;2023-11-18T07:21:48;5.60;99.90
21033;DHT22;10675;47.976;7.824;2023-11-18T07:24:14;5.50;99.90
21033;DHT22;10675;47.976;7.824;2023-11-18T07:26:40;5.50;99.90
21033;DHT22;10675;47.976;7.824;2023-11-18T07:29:05;5.70;99.90
21033;DHT22;10675;47.976;7.824;2023-11-18T07:31:34;5.60;99.90
21033;DHT22;10675;47.976;7.824;2023-11-18T07:34:03;5.70;99.90
21033;DHT22;10675;47.976;7.824;2023-11-18T07:36:31;6.00;99.90
21033;DHT22;10675;47.976;7.824;2023-11-18T07:38:57;6.00;99.90
21033;DHT22;10675;47.976;7.824;2023-11-18T07:41:23;6.00;99.90
21033;DHT22;10675;47.976;7.824;2023-11-18T07:43:53;5.90;99.90
21033;DHT22;10675;47.976;7.824;2023-11-18T07:46:20;6.00;99.90
21033;DHT22;10675;47.976;7.824;2023-11-18T07:48:50;6.00;99.90
21033;DHT22;10675;47.976;7.824;2023-11-18T07:51:17;6.00;99.90
21033;DHT22;10675;47.976;7.824;2023-11-18T07:53:43;6.10;99.90
21033;DHT22;10675;47.976;7.824;2023-11-18T07:56:09;6.10;99.90
21033;DHT22;10675;47.976;7.824;2023-11-18T07:58:37;6.00;99.90
21033;DHT22;10675;47.976;7.824;2023-11-18T08:01:04;6.10;99.90
21033;DHT22;10675;47.976;7.824;2023-11-18T08:03:35;6.00;99.90
21033;DHT22;10675;47.976;7.824;2023-11-18T08:06:03;6.10;99.90
21033;DHT22;10675;47.976;7.824;2023-11-18T08:08:29;6.10;99.90
21033;DHT22;10675;47.976;7.824;2023-11-18T08:10:55;6.20;99.90
21033;DHT22;10675;47.976;7.824;2023-11-18T08:13:21;6.30;99.90
21033;DHT22;10675;47.976;7.824;2023-11-18T08:15:47;6.40;99.90
21033;DHT22;10675;47.976;7.824;2023-11-18T08:18:12;6.50;99.90
21033;DHT22;10675;47.976;7.824;2023-11-18T08:20:38;6.60;99.90
21033;DHT22;10675;47.976;7.824;2023-11-18T08:23:04;6.70;99.90
21033;DHT22;10675;47.976;7.824;2023-11-18T08:25:34;6.70;99.90
21033;DHT22;10675;47.976;7.824;2023-11-18T08:28:00;6.80;99.90
21033;DHT22;10675;47.976;7.824;2023-11-18T08:30:29;6.90;99.90
21033;DHT22;10675;47.976;7.824;2023-11-18T08:32:55;7.00;99.90
21033;DHT22;10675;47.976;7.824;2023-11-18T08:35:20;7.10;99.90
21033;DHT22;10675;47.976;7.824;2023-11-18T08:37:47;7.20;99.90
21033;DHT22;10675;47.976;7.824;2023-11-18T08:40:13;7.10;99.90
21033;DHT22;10675;47.976;7.824;2023-11-18T08:42:50;7.20;99.90
21033;DHT22;10675;47.976;7.824;2023-11-18T08:45:27;7.20;99.90
21033;DHT22;10675;47.976;7.824;2023-11-18T08:47:55;7.40;99.90
21033;DHT22;10675;47.976;7.824;2023-11-18T08:50:21;7.30;99.90
21033;DHT22;10675;47.976;7.824;2023-11-18T08:52:50;7.40;99.90
21033;DHT22;10675;47.976;7.824;2023-11-18T08:55:19;7.40;99.90
21033;DHT22;10675;47.976;7.824;2023-11-18T08:57:50;7.50;99.90
21033;DHT22;10675;47.976;7.824;2023-11-18T09:00:28;7.70;99.90
21033;DHT22;10675;47.976;7.824;2023-11-18T09:03:14;7.70;99.90
21033;DHT22;10675;47.976;7.824;2023-11-18T09:05:47;7.80;99.90
21033;DHT22;10675;47.976;7.824;2023-11-18T09:08:37;7.90;99.90
21033;DHT22;10675;47.976;7.824;2023-11-18T09:11:14;7.90;99.90
21033;DHT22;10675;47.976;7.824;2023-11-18T09:13:45;8.00;99.90
21033;DHT22;10675;47.976;7.824;2023-11-18T09:16:13;8.20;99.90
21033;DHT22;10675;47.976;7.824;2023-11-18T09:18:40;8.20;99.90
21033;DHT22;10675;47.976;7.824;2023-11-18T09:21:07;8.20;99.90
21033;DHT22;10675;47.976;7.824;2023-11-18T09:23:35;8.30;99.90
21033;DHT22;10675;47.976;7.824;2023-11-18T09:26:03;8.20;99.90
21033;DHT22;10675;47.976;7.824;2023-11-18T09:28:33;8.30;99.90
21033;DHT22;10675;47.976;7.824;2023-11-18T09:31:06;8.40;99.90
21033;DHT22;10675;47.976;7.824;2023-11-18T09:33:36;8.40;99.90
21033;DHT22;10675;47.976;7.824;2023-11-18T09:36:07;8.40;99.90
21033;DHT22;10675;47.976;7.824;2023-11-18T09:38:35;8.40;99.90
21033;DHT22;10675;47.976;7.824;2023-11-18T09:41:06;8.50;99.90
21033;DHT22;10675;47.976;7.824;2023-11-18T09:43:36;9.00;99.90
21033;DHT22;10675;47.976;7.824;2023-11-18T09:46:09;9.30;99.90
21033;DHT22;10675;47.976;7.824;2023-11-18T09:48:49;9.00;99.90
21033;DHT22;10675;47.976;7.824;2023-11-18T09:51:22;8.70;99.90
21033;DHT22;10675;47.976;7.824;2023-11-18T09:53:53;8.80;99.90
21033;DHT22;10675;47.976;7.824;2023-11-18T09:56:25;8.80;99.90
21033;DHT22;10675;47.976;7.824;2023-11-18T10:01:38;8.90;99.90
21033;DHT22;10675;47.976;7.824;2023-11-18T10:04:08;8.80;99.90
21033;DHT22;10675;47.976;7.824;2023-11-18T10:06:36;8.70;99.90
21033;DHT22;10675;47.976;7.824;2023-11-18T10:09:06;8.70;99.90
21033;DHT22;10675;47.976;7.824;2023-11-18T10:11:47;8.80;99.90
21033;DHT22;10675;47.976;7.824;2023-11-18T10:14:14;8.90;99.90
21033;DHT22;10675;47.976;7.824;2023-11-18T10:16:43;8.90;99.90
21033;DHT22;10675;47.976;7.824;2023-11-18T10:19:13;8.90;99.90
21033;DHT22;10675;47.976;7.824;2023-11-18T10:21:39;9.10;99.90
21033;DHT22;10675;47.976;7.824;2023-11-18T10:24:06;8.90;99.90
21033;DHT22;10675;47.976;7.824;2023-11-18T10:26:42;8.90;99.90
21033;DHT22;10675;47.976;7.824;2023-11-18T10:29:10;8.90;99.90
21033;DHT22;10675;47.976;7.824;2023-11-18T10:31:39;8.80;99.90
21033;DHT22;10675;47.976;7.824;2023-11-18T10:34:13;8.70;99.90
21033;DHT22;10675;47.976;7.824;2023-11-18T10:36:58;8.80;99.90
21033;DHT22;10675;47.976;7.824;2023-11-18T10:39:31;8.80;99.90
21033;DHT22;10675;47.976;7.824;2023-11-18T10:42:00;8.80;99.90
21033;DHT22;10675;47.976;7.824;2023-11-18T10:44:28;8.80;99.90
21033;DHT22;10675;47.976;7.824;2023-11-18T10:46:55;8.80;99.90
21033;DHT22;10675;47.976;7.824;2023-11-18T10:49:27;8.70;99.90
21033;DHT22;10675;47.976;7.824;2023-11-18T10:51:53;8.80;99.90
21033;DHT22;10675;47.976;7.824;2023-11-18T10:54:20;8.70;99.90
21033;DHT22;10675;47.976;7.824;2023-11-18T10:56:47;8.60;99.90
21033;DHT22;10675;47.976;7.824;2023-11-18T10:59:13;8.70;99.90
21033;DHT22;10675;47.976;7.824;2023-11-18T11:01:44;8.70;99.90
21033;DHT22;10675;47.976;7.824;2023-11-18T11:04:13;8.70;99.90
21033;DHT22;10675;47.976;7.824;2023-11-18T11:06:43;8.70;99.90
21033;DHT22;10675;47.976;7.824;2023-11-18T11:09:11;8.70;99.90
21033;DHT22;10675;47.976;7.824;2023-11-18T11:12:04;8.70;99.90
21033;DHT22;10675;47.976;7.824;2023-11-18T11:14:34;8.70;99.90
21033;DHT22;10675;47.976;7.824;2023-11-18T11:17:13;8.70;99.90
21033;DHT22;10675;47.976;7.824;2023-11-18T11:19:55;8.70;99.90
21033;DHT22;10675;47.976;7.824;2023-11-18T11:22:45;8.60;99.90
21033;DHT22;10675;47.976;7.824;2023-11-18T11:25:22;8.50;99.90
21033;DHT22;10675;47.976;7.824;2023-11-18T11:28:04;8.40;99.90
21033;DHT22;10675;47.976;7.824;2023-11-18T11:30:46;8.40;99.90
21033;DHT22;10675;47.976;7.824;2023-11-18T11:33:33;8.40;99.90
21033;DHT22;10675;47.976;7.824;2023-11-18T11:36:08;8.40;99.90
21033;DHT22;10675;47.976;7.824;2023-11-18T11:38:37;8.40;99.90
21033;DHT22;10675;47.976;7.824;2023-11-18T11:41:04;8.50;99.90
21033;DHT22;10675;47.976;7.824;2023-11-18T11:43:30;8.60;99.90
21033;DHT22;10675;47.976;7.824;2023-11-18T11:46:00;8.60;99.90
21033;DHT22;10675;47.976;7.824;2023-11-18T11:48:30;8.60;99.90
21033;DHT22;10675;47.976;7.824;2023-11-18T11:51:20;8.40;99.90
21033;DHT22;10675;47.976;7.824;2023-11-18T11:54:11;8.30;99.90
21033;DHT22;10675;47.976;7.824;2023-11-18T11:56:44;8.40;99.90
21033;DHT22;10675;47.976;7.824;2023-11-18T11:59:21;8.40;99.90
21033;DHT22;10675;47.976;7.824;2023-11-18T12:02:02;8.40;99.90
21033;DHT22;10675;47.976;7.824;2023-11-18T12:04:33;8.40;99.90
21033;DHT22;10675;47.976;7.824;2023-11-18T12:06:59;8.40;99.90
21033;DHT22;10675;47.976;7.824;2023-11-18T12:09:31;8.50;99.90
21033;DHT22;10675;47.976;7.824;2023-11-18T12:12:14;8.60;99.90
21033;DHT22;10675;47.976;7.824;2023-11-18T12:14:52;8.70;99.90
21033;DHT22;10675;47.976;7.824;2023-11-18T12:17:22;8.70;99.90
21033;DHT22;10675;47.976;7.824;2023-11-18T12:19:49;8.80;99.90
21033;DHT22;10675;47.976;7.824;2023-11-18T12:35:22;8.80;99.90
21033;DHT22;10675;47.976;7.824;2023-11-18T12:41:33;8.80;99.90
21033;DHT22;10675;47.976;7.824;2023-11-18T12:46:51;8.80;99.90
21033;DHT22;10675;47.976;7.824;2023-11-18T12:49:21;9.40;99.90
21033;DHT22;10675;47.976;7.824;2023-11-18T12:51:54;9.60;99.90
21033;DHT22;10675;47.976;7.824;2023-11-18T12:54:26;9.40;99.90
21033;DHT22;10675;47.976;7.824;2023-11-18T12:56:56;9.30;99.90
21033;DHT22;10675;47.976;7.824;2023-11-18T12:59:21;9.20;99.90
21033;DHT22;10675;47.976;7.824;2023-11-18T13:01:48;9.20;99.90
21033;DHT22;10675;47.976;7.824;2023-11-18T13:04:19;9.20;99.90
21033;DHT22;10675;47.976;7.824;2023-11-18T13:06:48;9.20;99.90
21033;DHT22;10675;47.976;7.824;2023-11-18T13:09:14;9.30;99.90
21033;DHT22;10675;47.976;7.824;2023-11-18T13:11:54;9.30;99.90
21033;DHT22;10675;47.976;7.824;2023-11-18T13:14:28;9.30;99.90
21033;DHT22;10675;47.976;7.824;2023-11-18T13:16:56;9.30;99.90
21033;DHT22;10675;47.976;7.824;2023-11-18T13:19:28;9.30;99.90
21033;DHT22;10675;47.976;7.824;2023-11-18T13:22:05;9.30;99.90
21033;DHT22;10675;47.976;7.824;2023-11-18T13:24:41;9.30;99.90
21033;DHT22;10675;47.976;7.824;2023-11-18T13:27:10;9.40;99.90
21033;DHT22;10675;47.976;7.824;2023-11-18T13:29:38;9.40;99.90
21033;DHT22;10675;47.976;7.824;2023-11-18T13:32:05;9.50;99.90
21033;DHT22;10675;47.976;7.824;2023-11-18T13:34:35;9.50;99.90
21033;DHT22;10675;47.976;7.824;2023-11-18T13:37:06;9.50;99.90
21033;DHT22;10675;47.976;7.824;2023-11-18T13:39:33;9.50;99.90
21033;DHT22;10675;47.976;7.824;2023-11-18T13:42:01;9.50;99.90
21033;DHT22;10675;47.976;7.824;2023-11-18T13:44:43;9.60;99.90
21033;DHT22;10675;47.976;7.824;2023-11-18T13:47:10;9.60;99.90
21033;DHT22;10675;47.976;7.824;2023-11-18T13:49:39;9.60;99.90
21033;DHT22;10675;47.976;7.824;2023-11-18T13:52:08;9.60;99.90
21033;DHT22;10675;47.976;7.824;2023-11-18T13:54:36;9.60;99.90
21033;DHT22;10675;47.976;7.824;2023-11-18T13:57:02;9.60;99.90
21033;DHT22;10675;47.976;7.824;2023-11-18T13:59:29;9.70;99.90
21033;DHT22;10675;47.976;7.824;2023-11-18T14:01:55;9.70;99.90
21033;DHT22;10675;47.976;7.824;2023-11-18T14:04:26;9.70;99.90
21033;DHT22;10675;47.976;7.824;2023-11-18T14:06:53;9.70;99.90
21033;DHT22;10675;47.976;7.824;2023-11-18T14:09:22;9.70;99.90
21033;DHT22;10675;47.976;7.824;2023-11-18T14:11:53;9.80;99.90
21033;DHT22;10675;47.976;7.824;2023-11-18T14:14:22;9.80;99.90
21033;DHT22;10675;47.976;7.824;2023-11-18T14:16:51;9.90;99.90
21033;DHT22;10675;47.976;7.824;2023-11-18T14:19:18;10.00;99.90
21033;DHT22;10675;47.976;7.824;2023-11-18T14:21:44;10.00;99.90
21033;DHT22;10675;47.976;7.824;2023-11-18T14:24:10;10.10;99.90
21033;DHT22;10675;47.976;7.824;2023-11-18T14:26:37;10.30;99.90
21033;DHT22;10675;47.976;7.824;2023-11-18T14:29:05;10.30;99.90
21033;DHT22;10675;47.976;7.824;2023-11-18T14:31:31;10.30;99.90
21033;DHT22;10675;47.976;7.824;2023-11-18T14:33:57;10.10;99.90
21033;DHT22;10675;47.976;7.824;2023-11-18T14:36:28;10.00;99.90
21033;DHT22;10675;47.976;7.824;2023-11-18T14:38:54;10.00;99.90
21033;DHT22;10675;47.976;7.824;2023-11-18T14:41:19;9.80;99.90
21033;DHT22;10675;47.976;7.824;2023-11-18T14:43:50;9.90;99.90
21033;DHT22;10675;47.976;7.824;2023-11-18T14:46:15;9.90;99.90
21033;DHT22;10675;47.976;7.824;2023-11-18T14:48:41;9.70;99.90
21033;DHT22;10675;47.976;7.824;2023-11-18T14:51:07;9.80;99.90
21033;DHT22;10675;47.976;7.824;2023-11-18T14:53:33;9.80;99.90
21033;DHT22;10675;47.976;7.824;2023-11-18T14:55:59;9.80;99.90
21033;DHT22;10675;47.976;7.824;2023-11-18T14:58:25;9.80;99.90
21033;DHT22;10675;47.976;7.824;2023-11-18T15:00:51;9.80;99.90
21033;DHT22;10675;47.976;7.824;2023-11-18T15:03:17;9.80;99.90
21033;DHT22;10675;47.976;7.824;2023-11-18T15:05:42;9.80;99.90
21033;DHT22;10675;47.976;7.824;2023-11-18T15:08:09;9.80;99.90
21033;DHT22;10675;47.976;7.824;2023-11-18T15:10:37;9.70;99.90
21033;DHT22;10675;47.976;7.824;2023-11-18T15:13:03;9.70;99.90
21033;DHT22;10675;47.976;7.824;2023-11-18T15:15:30;10.00;99.90
21033;DHT22;10675;47.976;7.824;2023-11-18T15:18:04;9.70;99.90
21033;DHT22;10675;47.976;7.824;2023-11-18T15:20:32;9.70;99.90
21033;DHT22;10675;47.976;7.824;2023-11-18T15:23:00;9.70;99.90
21033;DHT22;10675;47.976;7.824;2023-11-18T15:25:26;9.60;99.90
21033;DHT22;10675;47.976;7.824;2023-11-18T15:27:52;9.60;99.90
21033;DHT22;10675;47.976;7.824;2023-11-18T15:30:18;9.60;99.90
21033;DHT22;10675;47.976;7.824;2023-11-18T15:32:45;9.60;99.90
21033;DHT22;10675;47.976;7.824;2023-11-18T15:35:12;9.60;99.90
21033;DHT22;10675;47.976;7.824;2023-11-18T15:37:40;9.60;99.90
21033;DHT22;10675;47.976;7.824;2023-11-18T15:40:12;9.60;99.90
21033;DHT22;10675;47.976;7.824;2023-11-18T15:42:41;9.50;99.90
21033;DHT22;10675;47.976;7.824;2023-11-18T15:45:14;9.60;99.90
21033;DHT22;10675;47.976;7.824;2023-11-18T15:47:41;9.50;99.90
21033;DHT22;10675;47.976;7.824;2023-11-18T15:50:09;9.40;99.90
21033;DHT22;10675;47.976;7.824;2023-11-18T15:52:38;9.40;99.90
21033;DHT22;10675;47.976;7.824;2023-11-18T15:55:05;9.30;99.90
21033;DHT22;10675;47.976;7.824;2023-11-18T15:57:38;9.40;99.90
21033;DHT22;10675;47.976;7.824;2023-11-18T16:00:05;9.40;99.90
21033;DHT22;10675;47.976;7.824;2023-11-18T16:02:35;9.30;99.90
21033;DHT22;10675;47.976;7.824;2023-11-18T16:05:00;9.30;99.90
21033;DHT22;10675;47.976;7.824;2023-11-18T16:07:28;9.30;99.90
21033;DHT22;10675;47.976;7.824;2023-11-18T16:09:54;9.30;99.90
21033;DHT22;10675;47.976;7.824;2023-11-18T16:12:19;9.30;99.90
21033;DHT22;10675;47.976;7.824;2023-11-18T16:14:46;9.30;99.90
21033;DHT22;10675;47.976;7.824;2023-11-18T16:17:11;9.20;99.90
21033;DHT22;10675;47.976;7.824;2023-11-18T16:19:36;9.20;99.90